Time,TemperatureF,DewpointF,PressureIn,WindDirection,WindDirectionDegrees,WindSpeedMPH,WindSpeedGustMPH,Humidity,HourlyPrecipIn,Conditions,Clouds,dailyrainin,SoftwareType,DateUTC
2013-01-07 00:12:00,37.0,34.0,30.17,North,0,0.0,-999.0,86,-99.99,,,-99.99,,2013-01-07 05:12:00,
2013-01-07 00:22:00,37.0,34.0,30.17,North,0,0.0,-999.0,86,-99.99,,,-99.99,,2013-01-07 05:22:00,
2013-01-07 00:33:00,37.0,34.0,30.17,North,0,0.0,-999.0,86,-99.99,,,-99.99,,2013-01-07 05:33:00,
2013-01-07 00:42:00,37.0,34.0,30.17,North,0,0.0,-999.0,86,-99.99,,,-99.99,,2013-01-07 05:42:00,
2013-01-07 00:52:00,37.0,34.0,30.17,North,0,0.0,-999.0,86,-99.99,,,-99.99,,2013-01-07 05:52:00,
2013-01-07 01:32:00,36.0,30.0,30.16,NW,310,7.0,-999.0,80,-99.99,,,-99.99,,2013-01-07 06:32:00,
2013-01-07 01:42:00,36.0,30.0,30.16,NW,310,7.0,-999.0,80,-99.99,,,-99.99,,2013-01-07 06:42:00,
2013-01-07 01:52:00,36.0,30.0,30.16,NW,310,7.0,-999.0,80,-99.99,,,-99.99,,2013-01-07 06:52:00,
2013-01-07 02:12:00,34.0,30.0,30.15,WNW,290,8.0,-999.0,86,-99.99,,,-99.99,,2013-01-07 07:12:00,
2013-01-07 02:22:00,34.0,30.0,30.15,WNW,290,8.0,-999.0,86,-99.99,,,-99.99,,2013-01-07 07:22:00,
2013-01-07 02:33:00,34.0,30.0,30.15,WNW,290,8.0,-999.0,86,-99.99,,,-99.99,,2013-01-07 07:33:00,
2013-01-07 02:42:00,34.0,30.0,30.15,WNW,290,8.0,-999.0,86,-99.99,,,-99.99,,2013-01-07 07:42:00,
2013-01-07 02:52:00,34.0,30.0,30.15,WNW,290,8.0,-999.0,86,-99.99,,,-99.99,,2013-01-07 07:52:00,
2013-01-07 03:22:00,34.0,30.0,30.17,North,0,0.0,-999.0,86,-99.99,,,-99.99,,2013-01-07 08:22:00,
2013-01-07 03:33:00,34.0,30.0,30.17,North,0,0.0,-999.0,86,-99.99,,,-99.99,,2013-01-07 08:33:00,
2013-01-07 03:43:00,34.0,30.0,30.17,North,0,0.0,-999.0,86,-99.99,,,-99.99,,2013-01-07 08:43:00,
2013-01-07 03:52:00,34.0,30.0,30.17,North,0,0.0,-999.0,86,-99.99,,,-99.99,,2013-01-07 08:52:00,
2013-01-07 04:23:00,32.0,30.0,30.18,NW,320,6.0,-999.0,92,-99.99,,,-99.99,,2013-01-07 09:23:00,
2013-01-07 04:32:00,32.0,30.0,30.18,NW,320,6.0,-999.0,92,-99.99,,,-99.99,,2013-01-07 09:32:00,
2013-01-07 04:42:00,32.0,30.0,30.18,NW,320,6.0,-999.0,92,-99.99,,,-99.99,,2013-01-07 09:42:00,
2013-01-07 04:52:00,32.0,30.0,30.18,NW,320,6.0,-999.0,92,-99.99,,,-99.99,,2013-01-07 09:52:00,
2013-01-07 07:23:00,28.0,27.0,30.26,North,0,0.0,-999.0,92,-99.99,,,-99.99,,2013-01-07 12:23:00,
2013-01-07 07:33:00,28.0,27.0,30.26,North,0,0.0,-999.0,92,-99.99,,,-99.99,,2013-01-07 12:33:00,
2013-01-07 07:43:00,28.0,27.0,30.26,North,0,0.0,-999.0,92,-99.99,,,-99.99,,2013-01-07 12:43:00,
2013-01-07 07:52:00,28.0,27.0,30.26,North,0,0.0,-999.0,92,-99.99,,,-99.99,,2013-01-07 12:52:00,
2013-01-07 08:23:00,28.0,27.0,30.27,North,0,0.0,-999.0,92,-99.99,,,-99.99,,2013-01-07 13:23:00,
2013-01-07 08:33:00,28.0,27.0,30.27,North,0,0.0,-999.0,92,-99.99,,,-99.99,,2013-01-07 13:33:00,
2013-01-07 08:43:00,28.0,27.0,30.27,North,0,0.0,-999.0,92,-99.99,,,-99.99,,2013-01-07 13:43:00,
2013-01-07 08:53:00,28.0,27.0,30.27,North,0,0.0,-999.0,92,-99.99,,,-99.99,,2013-01-07 13:53:00,
2013-01-07 09:23:00,30.0,30.0,30.29,North,0,0.0,-999.0,100,-99.99,,,-99.99,,2013-01-07 14:23:00,
2013-01-07 09:33:00,30.0,30.0,30.29,North,0,0.0,-999.0,100,-99.99,,,-99.99,,2013-01-07 14:33:00,
2013-01-07 09:43:00,30.0,30.0,30.29,North,0,0.0,-999.0,100,-99.99,,,-99.99,,2013-01-07 14:43:00,
2013-01-07 09:53:00,30.0,30.0,30.29,North,0,0.0,-999.0,100,-99.99,,,-99.99,,2013-01-07 14:53:00,
2013-01-07 10:43:00,34.0,30.0,30.30,North,0,0.0,-999.0,86,-99.99,,,-99.99,,2013-01-07 15:43:00,
2013-01-07 10:53:00,34.0,30.0,30.30,North,0,0.0,-999.0,86,-99.99,,,-99.99,,2013-01-07 15:53:00,
2013-01-07 11:12:00,37.0,32.0,30.31,North,0,0.0,-999.0,80,-99.99,,,-99.99,,2013-01-07 16:12:00,
2013-01-07 11:23:00,37.0,32.0,30.31,North,0,0.0,-999.0,80,-99.99,,,-99.99,,2013-01-07 16:23:00,
2013-01-07 11:33:00,37.0,32.0,30.31,North,0,0.0,-999.0,80,-99.99,,,-99.99,,2013-01-07 16:33:00,
2013-01-07 11:43:00,37.0,32.0,30.31,North,0,0.0,-999.0,80,-99.99,,,-99.99,,2013-01-07 16:43:00,
2013-01-07 11:53:00,37.0,32.0,30.31,North,0,0.0,-999.0,80,-99.99,,,-99.99,,2013-01-07 16:53:00,
2013-01-07 12:12:00,41.0,34.0,30.28,North,0,0.0,-999.0,75,-99.99,,,-99.99,,2013-01-07 17:12:00,
2013-01-07 12:23:00,41.0,34.0,30.28,North,0,0.0,-999.0,75,-99.99,,,-99.99,,2013-01-07 17:23:00,
2013-01-07 12:33:00,41.0,34.0,30.28,North,0,0.0,-999.0,75,-99.99,,,-99.99,,2013-01-07 17:33:00,
2013-01-07 12:42:00,41.0,34.0,30.28,North,0,0.0,-999.0,75,-99.99,,,-99.99,,2013-01-07 17:42:00,
2013-01-07 12:53:00,41.0,34.0,30.28,North,0,0.0,-999.0,75,-99.99,,,-99.99,,2013-01-07 17:53:00,
2013-01-07 13:23:00,46.0,36.0,30.26,North,0,0.0,-999.0,65,-99.99,,,-99.99,,2013-01-07 18:23:00,
2013-01-07 13:33:00,46.0,36.0,30.26,North,0,0.0,-999.0,65,-99.99,,,-99.99,,2013-01-07 18:33:00,
2013-01-07 13:43:00,46.0,36.0,30.26,North,0,0.0,-999.0,65,-99.99,,,-99.99,,2013-01-07 18:43:00,
2013-01-07 13:52:00,46.0,36.0,30.26,North,0,0.0,-999.0,65,-99.99,,,-99.99,,2013-01-07 18:52:00,
2013-01-07 14:23:00,52.0,37.0,30.23,North,0,0.0,-999.0,57,-99.99,,,-99.99,,2013-01-07 19:23:00,
2013-01-07 14:33:00,52.0,37.0,30.23,North,0,0.0,-999.0,57,-99.99,,,-99.99,,2013-01-07 19:33:00,
2013-01-07 14:43:00,52.0,37.0,30.23,North,0,0.0,-999.0,57,-99.99,,,-99.99,,2013-01-07 19:43:00,
2013-01-07 14:53:00,52.0,37.0,30.23,North,0,0.0,-999.0,57,-99.99,,,-99.99,,2013-01-07 19:53:00,
2013-01-07 15:13:00,54.0,25.0,30.24,North,-99,7.0,-999.0,32,-99.99,,,-99.99,,2013-01-07 20:13:00,
2013-01-07 15:23:00,54.0,25.0,30.24,North,-99,7.0,-999.0,32,-99.99,,,-99.99,,2013-01-07 20:23:00,
2013-01-07 15:33:00,54.0,25.0,30.24,North,-99,7.0,-999.0,32,-99.99,,,-99.99,,2013-01-07 20:33:00,
2013-01-07 15:43:00,54.0,25.0,30.24,North,-99,7.0,-999.0,32,-99.99,,,-99.99,,2013-01-07 20:43:00,
2013-01-07 15:52:00,54.0,25.0,30.24,North,-99,7.0,-999.0,32,-99.99,,,-99.99,,2013-01-07 20:52:00,
2013-01-07 16:12:00,54.0,28.0,30.25,North,-99,5.0,-999.0,37,-99.99,,,-99.99,,2013-01-07 21:12:00,
2013-01-07 16:23:00,54.0,28.0,30.25,North,-99,5.0,-999.0,37,-99.99,,,-99.99,,2013-01-07 21:23:00,
2013-01-07 16:33:00,54.0,28.0,30.25,North,-99,5.0,-999.0,37,-99.99,,,-99.99,,2013-01-07 21:33:00,
2013-01-07 16:43:00,54.0,28.0,30.25,North,-99,5.0,-999.0,37,-99.99,,,-99.99,,2013-01-07 21:43:00,
2013-01-07 16:52:00,54.0,28.0,30.25,North,-99,5.0,-999.0,37,-99.99,,,-99.99,,2013-01-07 21:52:00,
2013-01-07 17:12:00,50.0,27.0,30.26,North,0,0.0,-999.0,39,-99.99,,,-99.99,,2013-01-07 22:12:00,
2013-01-07 17:23:00,50.0,27.0,30.26,North,0,0.0,-999.0,39,-99.99,,,-99.99,,2013-01-07 22:23:00,
2013-01-07 17:33:00,50.0,27.0,30.26,North,0,0.0,-999.0,39,-99.99,,,-99.99,,2013-01-07 22:33:00,
2013-01-07 17:43:00,50.0,27.0,30.26,North,0,0.0,-999.0,39,-99.99,,,-99.99,,2013-01-07 22:43:00,
2013-01-07 17:53:00,50.0,27.0,30.26,North,0,0.0,-999.0,39,-99.99,,,-99.99,,2013-01-07 22:53:00,
2013-01-07 18:23:00,46.0,25.0,30.27,North,0,0.0,-999.0,42,-99.99,,,-99.99,,2013-01-07 23:23:00,
2013-01-07 18:33:00,46.0,25.0,30.27,North,0,0.0,-999.0,42,-99.99,,,-99.99,,2013-01-07 23:33:00,
2013-01-07 18:43:00,46.0,25.0,30.27,North,0,0.0,-999.0,42,-99.99,,,-99.99,,2013-01-07 23:43:00,
2013-01-07 18:53:00,46.0,25.0,30.27,North,0,0.0,-999.0,42,-99.99,,,-99.99,,2013-01-07 23:53:00,
2013-01-07 20:22:00,43.0,25.0,30.28,North,0,0.0,-999.0,48,-99.99,,,-99.99,,2013-01-08 01:22:00,
2013-01-07 20:33:00,43.0,25.0,30.28,North,0,0.0,-999.0,48,-99.99,,,-99.99,,2013-01-08 01:33:00,
2013-01-07 20:42:00,43.0,25.0,30.28,North,0,0.0,-999.0,48,-99.99,,,-99.99,,2013-01-08 01:42:00,
2013-01-07 20:52:00,43.0,25.0,30.28,North,0,0.0,-999.0,48,-99.99,,,-99.99,,2013-01-08 01:52:00,
2013-01-07 21:53:00,37.0,25.0,30.28,North,0,0.0,-999.0,60,-99.99,,,-99.99,,2013-01-08 02:53:00,
2013-01-07 22:12:00,37.0,27.0,30.29,North,0,0.0,-999.0,64,-99.99,,,-99.99,,2013-01-08 03:12:00,
2013-01-07 22:22:00,37.0,27.0,30.29,North,0,0.0,-999.0,64,-99.99,,,-99.99,,2013-01-08 03:22:00,
2013-01-07 22:33:00,37.0,27.0,30.29,North,0,0.0,-999.0,64,-99.99,,,-99.99,,2013-01-08 03:33:00,
2013-01-07 22:43:00,37.0,27.0,30.29,North,0,0.0,-999.0,64,-99.99,,,-99.99,,2013-01-08 03:43:00,
2013-01-07 22:52:00,37.0,27.0,30.29,North,0,0.0,-999.0,64,-99.99,,,-99.99,,2013-01-08 03:52:00,
2013-01-07 23:32:00,36.0,27.0,30.30,SSE,150,7.0,-999.0,69,-99.99,,,-99.99,,2013-01-08 04:32:00,
2013-01-07 23:43:00,36.0,27.0,30.30,SSE,150,7.0,-999.0,69,-99.99,,,-99.99,,2013-01-08 04:43:00,
2013-01-07 23:52:00,36.0,27.0,30.30,SSE,150,7.0,-999.0,69,-99.99,,,-99.99,,2013-01-08 04:52:00,